sensor_id;sensor_type;location;lat;lon;timestamp;P1;durP1;ratioP1;P2;durP2;ratioP2
4833;SDS011;12895;51.064;7.028;2023-08-08T14:50:49;3.03;;;2.60;;
4833;SDS011;12895;51.064;7.028;2023-08-08T14:53:34;3.93;;;2.87;;
4833;SDS011;12895;51.064;7.028;2023-08-08T14:56:20;4.50;;;2.53;;
4833;SDS011;12895;51.064;7.028;2023-08-08T14:59:05;2.83;;;2.60;;
4833;SDS011;12895;51.064;7.028;2023-08-08T15:01:51;5.10;;;3.07;;
4833;SDS011;12895;51.064;7.028;2023-08-08T15:04:36;3.37;;;3.00;;
4833;SDS011;12895;51.064;7.028;2023-08-08T15:07:23;4.10;;;2.60;;
4833;SDS011;12895;51.064;7.028;2023-08-08T15:10:09;4.77;;;3.07;;
4833;SDS011;12895;51.064;7.028;2023-08-08T15:12:54;3.33;;;3.03;;
4833;SDS011;12895;51.064;7.028;2023-08-08T15:15:40;3.07;;;2.77;;
4833;SDS011;12895;51.064;7.028;2023-08-08T15:18:25;6.80;;;3.33;;
4833;SDS011;12895;51.064;7.028;2023-08-08T15:21:11;4.23;;;3.03;;
4833;SDS011;12895;51.064;7.028;2023-08-08T15:23:58;3.23;;;2.67;;
4833;SDS011;12895;51.064;7.028;2023-08-08T15:26:44;3.27;;;2.97;;
4833;SDS011;12895;51.064;7.028;2023-08-08T15:29:29;2.70;;;2.30;;
4833;SDS011;12895;51.064;7.028;2023-08-08T15:32:15;5.50;;;2.70;;
4833;SDS011;12895;51.064;7.028;2023-08-08T15:35:00;3.57;;;2.63;;
4833;SDS011;12895;51.064;7.028;2023-08-08T15:37:47;3.60;;;2.63;;
4833;SDS011;12895;51.064;7.028;2023-08-08T15:40:33;3.07;;;2.80;;
4833;SDS011;12895;51.064;7.028;2023-08-08T15:43:19;3.10;;;2.70;;
4833;SDS011;12895;51.064;7.028;2023-08-08T15:46:04;4.20;;;2.73;;
4833;SDS011;12895;51.064;7.028;2023-08-08T15:48:52;3.63;;;2.77;;
4833;SDS011;12895;51.064;7.028;2023-08-08T15:51:38;3.50;;;3.20;;
4833;SDS011;12895;51.064;7.028;2023-08-08T15:54:24;4.00;;;2.50;;
4833;SDS011;12895;51.064;7.028;2023-08-08T15:57:11;4.00;;;2.90;;
4833;SDS011;12895;51.064;7.028;2023-08-08T15:59:56;3.53;;;3.23;;
4833;SDS011;12895;51.064;7.028;2023-08-08T16:02:42;7.20;;;2.80;;
4833;SDS011;12895;51.064;7.028;2023-08-08T16:05:27;3.20;;;2.57;;
4833;SDS011;12895;51.064;7.028;2023-08-08T16:08:12;4.87;;;2.93;;
4833;SDS011;12895;51.064;7.028;2023-08-08T16:11:00;4.03;;;2.63;;
4833;SDS011;12895;51.064;7.028;2023-08-08T16:13:48;2.83;;;2.63;;
4833;SDS011;12895;51.064;7.028;2023-08-08T16:16:36;3.20;;;2.83;;
4833;SDS011;12895;51.064;7.028;2023-08-08T16:19:21;2.70;;;2.50;;
4833;SDS011;12895;51.064;7.028;2023-08-08T16:22:07;3.37;;;3.00;;
4833;SDS011;12895;51.064;7.028;2023-08-08T16:24:53;2.63;;;2.40;;
4833;SDS011;12895;51.064;7.028;2023-08-08T16:27:39;4.07;;;2.47;;
4833;SDS011;12895;51.064;7.028;2023-08-08T16:30:26;3.07;;;2.67;;
4833;SDS011;12895;51.064;7.028;2023-08-08T16:33:12;2.53;;;2.27;;
4833;SDS011;12895;51.064;7.028;2023-08-08T16:35:59;4.10;;;2.77;;
4833;SDS011;12895;51.064;7.028;2023-08-08T16:38:45;2.97;;;2.40;;
4833;SDS011;12895;51.064;7.028;2023-08-08T16:41:30;3.60;;;2.20;;
4833;SDS011;12895;51.064;7.028;2023-08-08T16:44:16;2.73;;;2.53;;
4833;SDS011;12895;51.064;7.028;2023-08-08T16:47:04;2.97;;;2.70;;
4833;SDS011;12895;51.064;7.028;2023-08-08T16:49:51;2.60;;;2.33;;
4833;SDS011;12895;51.064;7.028;2023-08-08T16:52:36;4.77;;;2.87;;
4833;SDS011;12895;51.064;7.028;2023-08-08T16:55:21;3.40;;;2.60;;
4833;SDS011;12895;51.064;7.028;2023-08-08T16:58:09;3.13;;;2.93;;
4833;SDS011;12895;51.064;7.028;2023-08-08T17:00:55;2.80;;;2.60;;
4833;SDS011;12895;51.064;7.028;2023-08-08T17:03:44;4.67;;;2.80;;
4833;SDS011;12895;51.064;7.028;2023-08-08T17:06:29;6.90;;;3.40;;
4833;SDS011;12895;51.064;7.028;2023-08-08T17:09:16;3.90;;;2.60;;
4833;SDS011;12895;51.064;7.028;2023-08-08T17:12:02;5.40;;;2.60;;
4833;SDS011;12895;51.064;7.028;2023-08-08T17:14:47;9.40;;;3.23;;
4833;SDS011;12895;51.064;7.028;2023-08-08T17:17:33;2.97;;;2.43;;
4833;SDS011;12895;51.064;7.028;2023-08-08T17:20:20;2.97;;;2.77;;
4833;SDS011;12895;51.064;7.028;2023-08-08T17:23:05;2.50;;;2.30;;
4833;SDS011;12895;51.064;7.028;2023-08-08T17:25:51;4.13;;;2.30;;
4833;SDS011;12895;51.064;7.028;2023-08-08T17:28:36;2.90;;;2.60;;
4833;SDS011;12895;51.064;7.028;2023-08-08T17:31:22;4.60;;;3.70;;
4833;SDS011;12895;51.064;7.028;2023-08-08T17:34:08;3.40;;;2.70;;
4833;SDS011;12895;51.064;7.028;2023-08-08T17:36:54;2.70;;;2.20;;
4833;SDS011;12895;51.064;7.028;2023-08-08T17:39:40;4.60;;;2.70;;
4833;SDS011;12895;51.064;7.028;2023-08-08T17:42:25;5.03;;;3.20;;
4833;SDS011;12895;51.064;7.028;2023-08-08T17:45:11;2.70;;;2.30;;
4833;SDS011;12895;51.064;7.028;2023-08-08T17:47:56;4.43;;;2.23;;
4833;SDS011;12895;51.064;7.028;2023-08-08T17:50:41;3.27;;;2.13;;
4833;SDS011;12895;51.064;7.028;2023-08-08T17:53:27;4.97;;;2.43;;
4833;SDS011;12895;51.064;7.028;2023-08-08T17:56:13;4.40;;;2.90;;
4833;SDS011;12895;51.064;7.028;2023-08-08T17:58:59;3.53;;;2.33;;
4833;SDS011;12895;51.064;7.028;2023-08-08T18:01:44;2.50;;;2.30;;
4833;SDS011;12895;51.064;7.028;2023-08-08T18:04:30;4.93;;;2.40;;
4833;SDS011;12895;51.064;7.028;2023-08-08T18:07:15;2.43;;;2.20;;
4833;SDS011;12895;51.064;7.028;2023-08-08T18:10:02;2.93;;;2.70;;
4833;SDS011;12895;51.064;7.028;2023-08-08T18:12:48;2.83;;;2.50;;
4833;SDS011;12895;51.064;7.028;2023-08-08T18:15:33;3.47;;;2.03;;
4833;SDS011;12895;51.064;7.028;2023-08-08T18:18:18;3.23;;;2.70;;
4833;SDS011;12895;51.064;7.028;2023-08-08T18:21:06;4.33;;;2.87;;
4833;SDS011;12895;51.064;7.028;2023-08-08T18:23:52;2.83;;;2.63;;
4833;SDS011;12895;51.064;7.028;2023-08-08T18:26:39;7.20;;;3.30;;
4833;SDS011;12895;51.064;7.028;2023-08-08T18:29:24;2.87;;;2.50;;
4833;SDS011;12895;51.064;7.028;2023-08-08T18:32:09;2.87;;;2.10;;
4833;SDS011;12895;51.064;7.028;2023-08-08T18:34:55;2.93;;;2.50;;
4833;SDS011;12895;51.064;7.028;2023-08-08T18:37:40;2.70;;;2.30;;
4833;SDS011;12895;51.064;7.028;2023-08-08T18:40:26;3.03;;;2.60;;
4833;SDS011;12895;51.064;7.028;2023-08-08T18:43:13;3.30;;;2.53;;
4833;SDS011;12895;51.064;7.028;2023-08-08T18:45:58;2.63;;;1.90;;
4833;SDS011;12895;51.064;7.028;2023-08-08T18:48:43;2.80;;;2.13;;
4833;SDS011;12895;51.064;7.028;2023-08-08T18:51:29;2.03;;;1.90;;
4833;SDS011;12895;51.064;7.028;2023-08-08T18:54:14;2.73;;;2.33;;
4833;SDS011;12895;51.064;7.028;2023-08-08T18:56:59;2.27;;;1.90;;
4833;SDS011;12895;51.064;7.028;2023-08-08T18:59:46;2.50;;;2.30;;
4833;SDS011;12895;51.064;7.028;2023-08-08T19:02:31;3.33;;;1.90;;
4833;SDS011;12895;51.064;7.028;2023-08-08T19:05:17;2.40;;;2.20;;
4833;SDS011;12895;51.064;7.028;2023-08-08T19:08:03;4.10;;;2.33;;
4833;SDS011;12895;51.064;7.028;2023-08-08T19:10:49;3.03;;;2.33;;
4833;SDS011;12895;51.064;7.028;2023-08-08T19:13:34;2.10;;;1.90;;
4833;SDS011;12895;51.064;7.028;2023-08-08T19:16:21;2.60;;;2.40;;
4833;SDS011;12895;51.064;7.028;2023-08-08T19:19:06;2.47;;;2.10;;
4833;SDS011;12895;51.064;7.028;2023-08-08T19:21:51;3.73;;;2.23;;
4833;SDS011;12895;51.064;7.028;2023-08-08T19:24:37;2.33;;;2.13;;
4833;SDS011;12895;51.064;7.028;2023-08-08T19:27:23;3.47;;;2.27;;
4833;SDS011;12895;51.064;7.028;2023-08-08T19:30:08;2.40;;;2.17;;
4833;SDS011;12895;51.064;7.028;2023-08-08T19:32:58;3.30;;;2.43;;
4833;SDS011;12895;51.064;7.028;2023-08-08T19:35:44;2.63;;;2.43;;
4833;SDS011;12895;51.064;7.028;2023-08-08T19:38:29;2.77;;;2.30;;
4833;SDS011;12895;51.064;7.028;2023-08-08T19:41:15;2.90;;;2.60;;
4833;SDS011;12895;51.064;7.028;2023-08-08T19:44:00;3.20;;;3.00;;
4833;SDS011;12895;51.064;7.028;2023-08-08T19:46:45;2.50;;;2.23;;
4833;SDS011;12895;51.064;7.028;2023-08-08T19:49:32;2.93;;;2.43;;
4833;SDS011;12895;51.064;7.028;2023-08-08T19:52:18;2.97;;;2.50;;
4833;SDS011;12895;51.064;7.028;2023-08-08T19:55:03;3.10;;;2.33;;
4833;SDS011;12895;51.064;7.028;2023-08-08T19:57:51;3.40;;;2.00;;
4833;SDS011;12895;51.064;7.028;2023-08-08T20:00:43;2.77;;;1.93;;
4833;SDS011;12895;51.064;7.028;2023-08-08T20:03:28;2.83;;;2.23;;
4833;SDS011;12895;51.064;7.028;2023-08-08T20:06:16;2.80;;;2.40;;
4833;SDS011;12895;51.064;7.028;2023-08-08T20:09:02;2.80;;;2.60;;
4833;SDS011;12895;51.064;7.028;2023-08-08T20:11:48;4.07;;;3.00;;
4833;SDS011;12895;51.064;7.028;2023-08-08T20:14:33;3.20;;;2.90;;
4833;SDS011;12895;51.064;7.028;2023-08-08T20:17:18;6.17;;;3.67;;
4833;SDS011;12895;51.064;7.028;2023-08-08T20:20:04;4.00;;;3.77;;
4833;SDS011;12895;51.064;7.028;2023-08-08T20:22:52;4.47;;;4.07;;
4833;SDS011;12895;51.064;7.028;2023-08-08T20:25:37;5.00;;;4.60;;
4833;SDS011;12895;51.064;7.028;2023-08-08T20:28:23;5.90;;;4.40;;
4833;SDS011;12895;51.064;7.028;2023-08-08T20:31:08;5.77;;;4.80;;
4833;SDS011;12895;51.064;7.028;2023-08-08T20:33:53;5.80;;;5.30;;
4833;SDS011;12895;51.064;7.028;2023-08-08T20:36:40;5.67;;;5.03;;
4833;SDS011;12895;51.064;7.028;2023-08-08T20:39:27;5.53;;;5.13;;
4833;SDS011;12895;51.064;7.028;2023-08-08T20:42:12;5.50;;;5.10;;
4833;SDS011;12895;51.064;7.028;2023-08-08T20:44:58;6.00;;;5.40;;
4833;SDS011;12895;51.064;7.028;2023-08-08T20:47:43;6.30;;;5.80;;
4833;SDS011;12895;51.064;7.028;2023-08-08T20:50:28;7.30;;;6.60;;
4833;SDS011;12895;51.064;7.028;2023-08-08T20:53:14;6.93;;;6.40;;
4833;SDS011;12895;51.064;7.028;2023-08-08T20:56:01;7.13;;;6.63;;
4833;SDS011;12895;51.064;7.028;2023-08-08T20:58:46;7.67;;;6.97;;
4833;SDS011;12895;51.064;7.028;2023-08-08T21:01:32;8.17;;;6.33;;
4833;SDS011;12895;51.064;7.028;2023-08-08T21:04:17;7.20;;;6.60;;
4833;SDS011;12895;51.064;7.028;2023-08-08T21:07:03;7.70;;;6.90;;
4833;SDS011;12895;51.064;7.028;2023-08-08T21:09:49;9.00;;;8.30;;
4833;SDS011;12895;51.064;7.028;2023-08-08T21:12:36;10.27;;;9.27;;
4833;SDS011;12895;51.064;7.028;2023-08-08T21:15:21;8.73;;;8.10;;
4833;SDS011;12895;51.064;7.028;2023-08-08T21:18:07;8.90;;;7.50;;
4833;SDS011;12895;51.064;7.028;2023-08-08T21:20:52;9.13;;;8.43;;
4833;SDS011;12895;51.064;7.028;2023-08-08T21:23:38;7.73;;;7.07;;
4833;SDS011;12895;51.064;7.028;2023-08-08T21:26:23;6.70;;;6.20;;
4833;SDS011;12895;51.064;7.028;2023-08-08T21:29:11;6.80;;;6.10;;
4833;SDS011;12895;51.064;7.028;2023-08-08T21:31:56;6.40;;;5.90;;
4833;SDS011;12895;51.064;7.028;2023-08-08T21:34:42;7.60;;;6.90;;
4833;SDS011;12895;51.064;7.028;2023-08-08T21:37:27;8.00;;;7.30;;
4833;SDS011;12895;51.064;7.028;2023-08-08T21:40:13;9.20;;;8.40;;
4833;SDS011;12895;51.064;7.028;2023-08-08T21:42:59;9.17;;;7.47;;
4833;SDS011;12895;51.064;7.028;2023-08-08T21:45:46;8.27;;;7.67;;
4833;SDS011;12895;51.064;7.028;2023-08-08T21:48:31;8.70;;;7.80;;
4833;SDS011;12895;51.064;7.028;2023-08-08T21:51:17;9.33;;;8.50;;
4833;SDS011;12895;51.064;7.028;2023-08-08T21:54:02;11.63;;;8.90;;
4833;SDS011;12895;51.064;7.028;2023-08-08T21:56:48;9.10;;;8.30;;
4833;SDS011;12895;51.064;7.028;2023-08-08T21:59:33;9.30;;;8.40;;
4833;SDS011;12895;51.064;7.028;2023-08-08T22:02:20;10.07;;;9.27;;
4833;SDS011;12895;51.064;7.028;2023-08-08T22:05:06;9.93;;;8.97;;
4833;SDS011;12895;51.064;7.028;2023-08-08T22:07:52;10.43;;;9.03;;
4833;SDS011;12895;51.064;7.028;2023-08-08T22:10:43;11.40;;;10.27;;
4833;SDS011;12895;51.064;7.028;2023-08-08T22:13:28;11.30;;;10.03;;
4833;SDS011;12895;51.064;7.028;2023-08-08T22:16:13;9.70;;;8.93;;
4833;SDS011;12895;51.064;7.028;2023-08-08T22:19:00;14.10;;;10.60;;
4833;SDS011;12895;51.064;7.028;2023-08-08T22:21:46;9.87;;;8.97;;
4833;SDS011;12895;51.064;7.028;2023-08-08T22:24:31;10.67;;;9.83;;
4833;SDS011;12895;51.064;7.028;2023-08-08T22:27:16;12.00;;;10.90;;
4833;SDS011;12895;51.064;7.028;2023-08-08T22:30:02;13.17;;;12.00;;
4833;SDS011;12895;51.064;7.028;2023-08-08T22:32:48;13.13;;;12.13;;
4833;SDS011;12895;51.064;7.028;2023-08-08T22:35:36;11.80;;;10.80;;
4833;SDS011;12895;51.064;7.028;2023-08-08T22:38:21;12.70;;;11.50;;
4833;SDS011;12895;51.064;7.028;2023-08-08T22:41:06;12.50;;;11.20;;
4833;SDS011;12895;51.064;7.028;2023-08-08T22:43:52;13.40;;;12.20;;
4833;SDS011;12895;51.064;7.028;2023-08-08T22:46:37;14.77;;;13.33;;
4833;SDS011;12895;51.064;7.028;2023-08-08T22:49:23;13.40;;;12.30;;
4833;SDS011;12895;51.064;7.028;2023-08-08T22:52:10;15.90;;;13.50;;
4833;SDS011;12895;51.064;7.028;2023-08-08T22:54:56;14.40;;;13.03;;
4833;SDS011;12895;51.064;7.028;2023-08-08T22:57:42;14.17;;;12.97;;
4833;SDS011;12895;51.064;7.028;2023-08-08T23:00:28;12.50;;;11.40;;
4833;SDS011;12895;51.064;7.028;2023-08-08T23:03:13;12.50;;;11.40;;
4833;SDS011;12895;51.064;7.028;2023-08-08T23:05:59;12.10;;;10.90;;
4833;SDS011;12895;51.064;7.028;2023-08-08T23:08:47;14.13;;;10.87;;
4833;SDS011;12895;51.064;7.028;2023-08-08T23:11:33;11.80;;;10.77;;
4833;SDS011;12895;51.064;7.028;2023-08-08T23:14:18;13.13;;;10.30;;
4833;SDS011;12895;51.064;7.028;2023-08-08T23:17:04;11.57;;;10.47;;
4833;SDS011;12895;51.064;7.028;2023-08-08T23:19:49;10.87;;;9.83;;
4833;SDS011;12895;51.064;7.028;2023-08-08T23:22:35;10.67;;;9.77;;
4833;SDS011;12895;51.064;7.028;2023-08-08T23:25:22;8.93;;;8.23;;
4833;SDS011;12895;51.064;7.028;2023-08-08T23:28:08;10.30;;;9.27;;
4833;SDS011;12895;51.064;7.028;2023-08-08T23:30:54;8.93;;;7.67;;
4833;SDS011;12895;51.064;7.028;2023-08-08T23:33:39;7.83;;;7.00;;
4833;SDS011;12895;51.064;7.028;2023-08-08T23:36:25;6.00;;;5.40;;
4833;SDS011;12895;51.064;7.028;2023-08-08T23:39:11;5.87;;;4.97;;
4833;SDS011;12895;51.064;7.028;2023-08-08T23:41:57;5.50;;;5.00;;
4833;SDS011;12895;51.064;7.028;2023-08-08T23:44:42;5.17;;;4.77;;
4833;SDS011;12895;51.064;7.028;2023-08-08T23:47:28;5.50;;;5.00;;
4833;SDS011;12895;51.064;7.028;2023-08-08T23:50:13;4.73;;;4.43;;
4833;SDS011;12895;51.064;7.028;2023-08-08T23:52:59;6.87;;;5.23;;
4833;SDS011;12895;51.064;7.028;2023-08-08T23:55:44;5.67;;;5.17;;
4833;SDS011;12895;51.064;7.028;2023-08-08T23:58:32;5.67;;;5.20;;
